Time;durP1;ratioP1;P1;durP2;ratioP2;P2;SDS_P1;SDS_P2;PMS_P1;PMS_P2;Temp;Humidity;BMP_temperature;BMP_pressure;BME280_temperature;BME280_humidity;BME280_pressure;Samples;Min_cycle;Max_cycle;Signal;HPM_P1;HPM_P2
2021/10/03 00:02:09;;;;;;;2.50;2.30;;;21.20;84.50;;;;;;5137826;27;20423;-41
2021/10/03 00:04:43;;;;;;;2.40;2.20;;;21.10;86.40;;;;;;5146436;27;20539;-41
2021/10/03 00:07:15;;;;;;;2.13;2.00;;;21.00;84.60;;;;;;5147093;27;20425;-41
2021/10/03 00:09:46;;;;;;;2.33;2.13;;;20.90;85.50;;;;;;5146613;27;20420;-41
2021/10/03 00:12:17;;;;;;;2.47;2.27;;;20.80;88.50;;;;;;5146919;27;21014;-41
2021/10/03 00:14:50;;;;;;;3.70;2.57;;;20.70;87.10;;;;;;5146847;27;20520;-41
2021/10/03 00:17:22;;;;;;;4.40;2.63;;;20.70;86.60;;;;;;5126811;27;20439;-41
2021/10/03 00:19:53;;;;;;;2.93;2.73;;;20.70;85.50;;;;;;5125119;28;20416;-41
2021/10/03 00:22:28;;;;;;;3.17;2.77;;;20.60;90.20;;;;;;5125656;28;20468;-42
2021/10/03 00:24:59;;;;;;;3.13;2.60;;;20.60;90.20;;;;;;5126052;28;20420;-42
2021/10/03 00:27:31;;;;;;;4.43;3.10;;;20.60;90.80;;;;;;5125817;28;20477;-42
2021/10/03 00:30:04;;;;;;;3.03;2.73;;;20.50;91.00;;;;;;5125623;28;20439;-42
2021/10/03 00:32:35;;;;;;;2.93;2.73;;;20.40;92.50;;;;;;5143409;27;20453;-42
2021/10/03 00:35:07;;;;;;;3.43;3.13;;;20.30;93.40;;;;;;5146002;27;20543;-42
2021/10/03 00:37:38;;;;;;;3.40;3.10;;;20.30;93.90;;;;;;5145674;27;20479;-41
2021/10/03 00:40:11;;;;;;;3.83;3.50;;;20.20;94.60;;;;;;5145852;27;20817;-41
2021/10/03 00:42:43;;;;;;;3.70;3.27;;;20.20;95.20;;;;;;5145837;27;20856;-42
2021/10/03 00:45:20;;;;;;;3.20;2.90;;;20.10;95.60;;;;;;5145523;27;20477;-42
2021/10/03 00:47:51;;;;;;;3.70;3.30;;;20.10;95.40;;;;;;5145511;27;20572;-42
2021/10/03 00:50:22;;;;;;;3.23;2.93;;;20.00;96.00;;;;;;5144181;27;20415;-43
2021/10/03 00:52:53;;;;;;;3.40;3.10;;;20.00;96.70;;;;;;5145506;27;20440;-40
2021/10/03 00:55:24;;;;;;;5.83;4.13;;;19.90;97.30;;;;;;5145457;27;20459;-41
2021/10/03 00:57:55;;;;;;;4.90;4.40;;;19.80;97.70;;;;;;5145619;27;20819;-41
2021/10/03 01:00:32;;;;;;;4.97;3.80;;;19.80;98.00;;;;;;5144701;27;20459;-42
2021/10/03 01:03:04;;;;;;;4.33;3.60;;;19.70;99.00;;;;;;5144715;27;20432;-41
2021/10/03 01:05:38;;;;;;;4.07;3.70;;;19.60;99.60;;;;;;5145583;27;20547;-41
2021/10/03 01:08:10;;;;;;;3.77;3.47;;;19.60;99.90;;;;;;5145313;27;20430;-42
2021/10/03 01:10:41;;;;;;;4.40;3.53;;;19.50;99.90;;;;;;5145439;27;20420;-42
2021/10/03 01:13:12;;;;;;;4.43;3.93;;;19.40;99.90;;;;;;5145478;27;20445;-41
2021/10/03 01:15:49;;;;;;;4.83;4.33;;;19.30;99.90;;;;;;5145116;27;20491;-41
2021/10/03 01:18:21;;;;;;;4.10;3.70;;;19.20;99.90;;;;;;5144572;27;20468;-43
2021/10/03 01:20:52;;;;;;;4.23;3.60;;;19.10;99.90;;;;;;5145402;27;20411;-41
2021/10/03 01:23:25;;;;;;;4.40;4.00;;;19.00;99.90;;;;;;5145700;27;20436;-45
2021/10/03 01:25:56;;;;;;;5.60;4.13;;;19.00;99.90;;;;;;5146038;27;20451;-43
2021/10/03 01:28:27;;;;;;;4.47;4.07;;;18.90;99.90;;;;;;5145743;27;20582;-44
2021/10/03 01:30:58;;;;;;;4.90;4.10;;;18.80;99.90;;;;;;5144743;27;20451;-42
2021/10/03 01:33:30;;;;;;;4.57;4.17;;;18.70;99.90;;;;;;5144519;27;20427;-43
2021/10/03 01:36:01;;;;;;;4.00;3.70;;;18.50;99.90;;;;;;5145117;27;20477;-43
2021/10/03 01:38:33;;;;;;;4.90;4.20;;;18.30;99.90;;;;;;5145026;27;20425;-42
2021/10/03 01:41:05;;;;;;;4.53;4.10;;;18.20;99.90;;;;;;5144817;27;20787;-41
2021/10/03 01:43:36;;;;;;;6.07;3.93;;;18.00;99.90;;;;;;5144729;27;20484;-42
2021/10/03 01:46:08;;;;;;;5.93;4.30;;;17.90;99.90;;;;;;5144852;27;20474;-42
2021/10/03 01:48:47;;;;;;;6.20;4.50;;;17.80;99.90;;;;;;5144675;27;20479;-42
2021/10/03 01:51:19;;;;;;;4.70;4.30;;;17.60;99.90;;;;;;5144335;27;20472;-42
2021/10/03 01:53:54;;;;;;;4.87;4.50;;;17.50;99.90;;;;;;5145206;27;20428;-42
2021/10/03 01:56:25;;;;;;;5.37;4.87;;;17.40;99.90;;;;;;5144701;27;20545;-41
2021/10/03 01:59:00;;;;;;;6.77;5.57;;;17.20;99.90;;;;;;5143882;27;20449;-43
2021/10/03 02:01:33;;;;;;;6.47;5.93;;;17.20;99.90;;;;;;5139596;27;20448;-42
2021/10/03 02:04:08;;;;;;;7.60;6.60;;;17.10;99.90;;;;;;5142248;27;20433;-42
2021/10/03 02:06:44;;;;;;;7.20;6.50;;;17.00;99.90;;;;;;5144640;27;20476;-42
2021/10/03 02:09:19;;;;;;;7.40;6.70;;;16.90;99.90;;;;;;5144713;27;20411;-42
2021/10/03 02:11:52;;;;;;;8.03;7.37;;;16.80;99.90;;;;;;5144431;27;20816;-41
2021/10/03 02:14:27;;;;;;;8.43;6.47;;;16.70;99.90;;;;;;5144682;27;20780;-42
2021/10/03 02:16:58;;;;;;;8.10;7.40;;;16.60;99.90;;;;;;5143345;27;20515;-41
2021/10/03 02:19:31;;;;;;;6.63;6.13;;;16.50;99.90;;;;;;5143757;27;20480;-34
2021/10/03 02:22:02;;;;;;;9.10;8.20;;;16.40;99.90;;;;;;5141468;27;20457;-35
2021/10/03 02:24:35;;;;;;;8.27;7.50;;;16.40;99.90;;;;;;5140890;28;20445;-36
2021/10/03 02:27:08;;;;;;;9.07;8.23;;;16.30;99.90;;;;;;5141169;28;20441;-35
2021/10/03 02:29:39;;;;;;;8.23;7.50;;;16.20;99.90;;;;;;5144123;27;20545;-36
2021/10/03 02:32:10;;;;;;;9.23;8.33;;;16.20;99.90;;;;;;5141903;28;20441;-36
2021/10/03 02:34:41;;;;;;;9.90;8.87;;;16.20;99.90;;;;;;5130528;27;20456;-34
2021/10/03 02:37:12;;;;;;;9.07;8.30;;;16.10;99.90;;;;;;5142627;28;20505;-35
2021/10/03 02:39:45;;;;;;;13.83;11.60;;;16.00;99.90;;;;;;5143304;27;20476;-35
2021/10/03 02:42:16;;;;;;;11.37;10.40;;;16.00;99.90;;;;;;5144213;28;20440;-34
2021/10/03 02:44:47;;;;;;;11.13;10.00;;;15.90;99.90;;;;;;5143030;27;20504;-35
2021/10/03 02:47:19;;;;;;;11.57;10.37;;;15.90;99.90;;;;;;5146972;27;20479;-35
2021/10/03 02:49:49;;;;;;;11.07;10.07;;;15.90;99.90;;;;;;5148345;27;20875;-35
2021/10/03 02:52:21;;;;;;;10.40;9.40;;;15.90;99.90;;;;;;5135341;27;20458;-34
2021/10/03 02:54:53;;;;;;;10.30;9.30;;;16.00;99.90;;;;;;5148610;27;20432;-34
2021/10/03 02:57:24;;;;;;;10.97;9.73;;;16.10;99.90;;;;;;5148137;27;20529;-34
2021/10/03 02:59:55;;;;;;;8.87;7.97;;;16.10;99.90;;;;;;5147415;27;20978;-34
2021/10/03 03:02:26;;;;;;;7.27;6.60;;;16.30;99.90;;;;;;5143867;27;20452;-34
2021/10/03 03:05:00;;;;;;;7.37;6.50;;;16.30;99.90;;;;;;5146917;27;20451;-34
2021/10/03 03:07:31;;;;;;;6.97;6.30;;;16.50;99.90;;;;;;5147525;27;20583;-34
2021/10/03 03:10:07;;;;;;;5.60;5.10;;;16.40;99.90;;;;;;5147297;27;20463;-34
2021/10/03 03:12:38;;;;;;;7.23;5.10;;;16.40;99.90;;;;;;5147910;27;20448;-35
2021/10/03 03:15:11;;;;;;;4.90;4.50;;;16.30;99.90;;;;;;5135919;27;20464;-34
2021/10/03 03:17:42;;;;;;;5.47;4.57;;;16.30;99.90;;;;;;5145943;27;20541;-34
2021/10/03 03:20:13;;;;;;;4.37;4.00;;;16.20;99.90;;;;;;5147657;27;20440;-34
2021/10/03 03:22:44;;;;;;;5.73;5.10;;;16.20;99.90;;;;;;5147075;27;20472;-35
2021/10/03 03:25:18;;;;;;;7.00;5.13;;;16.10;99.90;;;;;;5148376;27;20443;-34
2021/10/03 03:27:48;;;;;;;5.97;4.23;;;16.10;99.90;;;;;;5147891;27;20905;-34
2021/10/03 03:30:19;;;;;;;6.60;4.10;;;16.20;99.90;;;;;;5147261;27;20445;-34
2021/10/03 03:32:51;;;;;;;5.20;3.20;;;16.30;99.90;;;;;;5146177;27;20984;-34
2021/10/03 03:35:21;;;;;;;6.57;4.90;;;16.30;99.90;;;;;;5146645;27;20554;-34
2021/10/03 03:37:52;;;;;;;4.57;4.07;;;16.20;99.90;;;;;;5147232;27;21342;-34
2021/10/03 03:40:26;;;;;;;5.03;4.37;;;16.20;99.90;;;;;;5146333;27;20497;-34
2021/10/03 03:42:57;;;;;;;5.23;4.40;;;16.20;99.90;;;;;;5143708;27;20468;-34
2021/10/03 03:45:28;;;;;;;5.20;4.37;;;16.10;99.90;;;;;;5146610;27;20488;-34
2021/10/03 03:48:01;;;;;;;5.63;4.30;;;16.00;99.90;;;;;;5146151;27;20514;-34
2021/10/03 03:50:34;;;;;;;7.10;4.03;;;15.90;99.90;;;;;;5134217;27;20449;-34
2021/10/03 03:53:05;;;;;;;5.97;4.47;;;15.90;99.90;;;;;;5137624;27;20433;-33
2021/10/03 03:55:37;;;;;;;5.33;4.83;;;15.80;99.90;;;;;;5147130;27;20553;-33
2021/10/03 03:58:08;;;;;;;7.20;4.50;;;15.80;99.90;;;;;;5145291;27;20492;-34
2021/10/03 04:00:48;;;;;;;6.73;4.80;;;15.60;99.90;;;;;;5145844;27;20496;-34
2021/10/03 04:03:19;;;;;;;6.63;5.20;;;15.50;99.90;;;;;;5145332;27;20464;-34
2021/10/03 04:05:50;;;;;;;5.03;4.63;;;15.60;99.90;;;;;;5147022;27;20441;-34
2021/10/03 04:08:23;;;;;;;8.40;5.53;;;15.50;99.90;;;;;;5146833;27;20425;-34
2021/10/03 04:10:56;;;;;;;9.17;5.77;;;15.60;99.90;;;;;;5146930;27;20505;-34
2021/10/03 04:13:27;;;;;;;8.80;5.93;;;15.40;99.90;;;;;;5146505;27;20437;-35
2021/10/03 04:15:58;;;;;;;6.90;6.33;;;15.30;99.90;;;;;;5146046;27;20437;-34
2021/10/03 04:18:29;;;;;;;6.57;5.53;;;15.20;99.90;;;;;;5145743;27;20563;-35
2021/10/03 04:21:00;;;;;;;5.40;5.00;;;15.10;99.90;;;;;;5145377;27;20449;-35
2021/10/03 04:23:30;;;;;;;7.43;6.47;;;15.00;99.90;;;;;;5145992;27;20449;-34
2021/10/03 04:26:03;;;;;;;7.97;6.10;;;14.90;99.90;;;;;;5146975;27;20450;-36
2021/10/03 04:28:34;;;;;;;7.17;6.47;;;14.90;99.90;;;;;;5146388;27;20589;-34
2021/10/03 04:31:05;;;;;;;7.17;6.53;;;14.80;99.90;;;;;;5145326;27;20448;-34
2021/10/03 04:33:40;;;;;;;7.77;6.40;;;14.70;99.90;;;;;;5144812;27;20449;-34
2021/10/03 04:36:12;;;;;;;7.30;6.30;;;14.60;99.90;;;;;;5146159;27;20440;-34
2021/10/03 04:38:44;;;;;;;7.87;7.07;;;14.50;99.90;;;;;;5146272;27;20476;-34
2021/10/03 04:41:16;;;;;;;7.43;6.70;;;14.50;99.90;;;;;;5146659;27;20447;-35
2021/10/03 04:43:47;;;;;;;7.63;7.03;;;14.40;99.90;;;;;;5146584;27;20583;-35
2021/10/03 04:46:18;;;;;;;8.30;7.50;;;14.30;99.90;;;;;;5145721;27;20815;-34
2021/10/03 04:48:49;;;;;;;8.10;6.00;;;14.30;99.90;;;;;;5145863;27;20532;-34
2021/10/03 04:51:23;;;;;;;6.20;5.60;;;14.20;99.90;;;;;;5145052;27;20445;-34
2021/10/03 04:53:54;;;;;;;5.77;5.17;;;14.10;99.90;;;;;;5145989;27;20468;-34
2021/10/03 04:56:28;;;;;;;5.53;4.50;;;14.10;99.90;;;;;;5142500;27;20437;-34
2021/10/03 04:58:59;;;;;;;6.23;4.63;;;14.00;99.90;;;;;;5145239;27;20449;-34
2021/10/03 05:01:30;;;;;;;4.50;4.10;;;13.90;99.90;;;;;;5144504;27;20477;-35
2021/10/03 05:04:03;;;;;;;7.13;5.10;;;13.90;99.90;;;;;;5145436;27;20497;-35
2021/10/03 05:06:34;;;;;;;5.90;4.43;;;13.80;99.90;;;;;;5143889;27;20474;-35
2021/10/03 05:09:05;;;;;;;5.13;4.30;;;13.70;99.90;;;;;;5144287;27;20456;-34
2021/10/03 05:11:40;;;;;;;6.37;4.73;;;13.70;99.90;;;;;;5146028;27;20436;-35
2021/10/03 05:14:11;;;;;;;7.20;4.70;;;13.70;99.90;;;;;;5145546;27;20451;-34
2021/10/03 05:16:42;;;;;;;6.00;4.63;;;13.50;99.90;;;;;;5144604;27;20494;-35
2021/10/03 05:19:13;;;;;;;7.47;4.90;;;13.50;99.90;;;;;;5145284;27;20516;-35
2021/10/03 05:21:44;;;;;;;5.73;4.33;;;13.40;99.90;;;;;;5144705;27;20456;-35
2021/10/03 05:24:15;;;;;;;9.70;4.80;;;13.30;99.90;;;;;;5145034;27;20847;-35
2021/10/03 05:26:51;;;;;;;5.93;4.33;;;13.20;99.90;;;;;;5145229;27;20441;-34
2021/10/03 05:29:21;;;;;;;5.30;4.80;;;13.20;99.90;;;;;;5145320;27;20865;-34
2021/10/03 05:31:52;;;;;;;5.70;5.10;;;13.10;99.90;;;;;;5131171;27;20580;-34
2021/10/03 05:34:23;;;;;;;7.73;6.07;;;13.10;99.90;;;;;;5144688;27;20473;-35
2021/10/03 05:36:54;;;;;;;10.20;6.40;;;13.00;99.90;;;;;;5144207;27;20533;-35
2021/10/03 05:39:25;;;;;;;7.50;6.73;;;12.90;99.90;;;;;;5145010;27;20438;-35
2021/10/03 05:41:58;;;;;;;8.63;7.23;;;12.90;99.90;;;;;;5124983;28;20889;-33
2021/10/03 05:44:29;;;;;;;10.47;8.10;;;12.80;99.90;;;;;;5124304;28;20446;-35
2021/10/03 05:47:00;;;;;;;11.13;9.33;;;12.80;99.90;;;;;;5142728;27;20452;-34
2021/10/03 05:49:31;;;;;;;9.73;8.33;;;12.80;99.90;;;;;;5143762;27;20452;-34
2021/10/03 05:52:02;;;;;;;10.80;8.77;;;12.80;99.90;;;;;;5144635;27;20441;-36
2021/10/03 05:54:33;;;;;;;9.33;8.43;;;12.70;99.90;;;;;;5144071;27;20437;-34
2021/10/03 05:57:06;;;;;;;13.63;9.20;;;12.50;99.90;;;;;;5144844;27;20441;-34
2021/10/03 05:59:37;;;;;;;13.87;11.60;;;12.50;99.90;;;;;;5144781;27;20494;-34
2021/10/03 06:02:11;;;;;;;16.20;12.87;;;12.40;99.90;;;;;;5143853;27;20458;-35
2021/10/03 06:04:42;;;;;;;21.40;15.27;;;12.40;99.90;;;;;;5144251;27;20445;-34
2021/10/03 06:07:13;;;;;;;24.10;16.77;;;12.40;99.90;;;;;;5134277;27;20444;-34
2021/10/03 06:09:47;;;;;;;26.10;18.73;;;12.40;99.90;;;;;;5144271;27;20445;-35
2021/10/03 06:12:19;;;;;;;27.13;18.60;;;12.40;99.90;;;;;;5145069;27;20452;-34
2021/10/03 06:14:52;;;;;;;33.23;18.80;;;12.40;99.90;;;;;;5144365;27;20512;-34
2021/10/03 06:17:26;;;;;;;29.43;19.47;;;12.30;99.90;;;;;;5135104;27;20532;-35
2021/10/03 06:19:57;;;;;;;28.57;21.00;;;12.30;99.90;;;;;;5143718;27;20476;-34
2021/10/03 06:22:31;;;;;;;31.67;18.60;;;12.20;99.90;;;;;;5144141;27;20951;-34
2021/10/03 06:25:02;;;;;;;21.57;17.87;;;12.20;99.90;;;;;;5144437;27;20449;-34
2021/10/03 06:27:34;;;;;;;20.70;16.80;;;12.10;99.90;;;;;;5144168;28;20449;-34
2021/10/03 06:30:06;;;;;;;21.50;16.37;;;12.10;99.90;;;;;;5143820;28;20448;-34
2021/10/03 06:32:38;;;;;;;24.50;16.53;;;12.00;99.90;;;;;;5143793;27;20504;-34
2021/10/03 06:35:09;;;;;;;23.87;16.80;;;12.00;99.90;;;;;;5142853;27;20498;-35
2021/10/03 06:37:40;;;;;;;22.70;16.50;;;11.90;99.90;;;;;;5143302;27;20498;-34
2021/10/03 06:40:12;;;;;;;21.10;15.83;;;11.80;99.90;;;;;;5143917;27;20433;-34
2021/10/03 06:42:44;;;;;;;28.33;16.53;;;11.80;99.90;;;;;;5144553;27;20436;-34
2021/10/03 06:45:18;;;;;;;25.20;17.57;;;11.70;99.90;;;;;;5143899;28;20449;-35
2021/10/03 06:47:49;;;;;;;23.27;16.80;;;11.70;99.90;;;;;;5142884;28;20448;-34
2021/10/03 06:50:20;;;;;;;25.37;17.20;;;11.70;99.90;;;;;;5143669;27;20472;-34
2021/10/03 06:52:51;;;;;;;22.83;18.40;;;11.60;99.90;;;;;;5144093;27;20445;-35
2021/10/03 06:55:22;;;;;;;19.70;15.50;;;11.50;99.90;;;;;;5144120;27;20443;-35
2021/10/03 06:57:54;;;;;;;19.50;14.83;;;11.60;99.90;;;;;;5144319;27;20464;-33
2021/10/03 07:00:26;;;;;;;15.53;13.33;;;11.50;99.90;;;;;;5143076;27;20479;-35
2021/10/03 07:03:02;;;;;;;13.30;11.90;;;11.40;99.90;;;;;;5143304;27;20467;-35
2021/10/03 07:05:33;;;;;;;13.63;10.80;;;11.40;99.90;;;;;;5143750;27;20823;-35
2021/10/03 07:08:05;;;;;;;14.30;10.10;;;11.40;99.90;;;;;;5142524;27;20475;-33
2021/10/03 07:10:36;;;;;;;13.00;10.40;;;11.30;99.90;;;;;;5144037;28;20476;-35
2021/10/03 07:13:11;;;;;;;12.70;10.90;;;11.30;99.90;;;;;;5144108;27;20429;-33
2021/10/03 07:15:42;;;;;;;11.07;9.93;;;11.30;99.90;;;;;;5142608;28;20476;-34
2021/10/03 07:18:13;;;;;;;12.67;9.13;;;11.20;99.90;;;;;;5141136;27;21043;-33
2021/10/03 07:20:44;;;;;;;9.40;8.13;;;11.20;99.90;;;;;;5143861;28;20449;-33
2021/10/03 07:23:15;;;;;;;9.13;7.40;;;11.20;99.90;;;;;;5143868;28;20443;-33
2021/10/03 07:25:49;;;;;;;7.63;6.93;;;11.20;99.90;;;;;;5143160;28;20551;-34
2021/10/03 07:28:23;;;;;;;8.93;7.47;;;11.10;99.90;;;;;;5142031;28;20464;-34
2021/10/03 07:30:54;;;;;;;9.47;7.17;;;11.10;99.90;;;;;;5143090;28;20587;-34
2021/10/03 07:33:25;;;;;;;7.83;7.03;;;11.10;99.90;;;;;;5145665;27;20453;-34
2021/10/03 07:35:56;;;;;;;11.35;8.23;;;11.00;99.90;;;;;;5146567;27;20946;-34
2021/10/03 07:38:27;;;;;;;8.30;7.50;;;11.00;99.90;;;;;;5145975;27;20686;-34
2021/10/03 07:41:00;;;;;;;10.05;8.10;;;10.90;99.90;;;;;;5136934;27;20481;-33
2021/10/03 07:43:32;;;;;;;9.67;8.23;;;10.90;99.90;;;;;;5146931;27;20263;-34
2021/10/03 07:46:03;;;;;;;10.23;9.10;;;10.90;99.90;;;;;;5145095;27;20547;-33
2021/10/03 07:48:34;;;;;;;8.90;7.77;;;10.90;99.90;;;;;;5146494;27;20467;-33
2021/10/03 07:51:05;;;;;;;10.03;8.20;;;10.80;99.90;;;;;;5146967;27;20589;-33
2021/10/03 07:53:36;;;;;;;11.37;8.60;;;10.80;99.90;;;;;;5126474;27;20453;-33
2021/10/03 07:56:08;;;;;;;8.90;8.00;;;10.80;99.90;;;;;;5127276;27;20533;-34
2021/10/03 07:58:41;;;;;;;10.27;8.70;;;10.70;99.90;;;;;;5147253;27;20481;-34
2021/10/03 08:01:31;;;;;;;12.73;9.60;;;10.70;99.90;;;;;;5145721;27;20504;-33
2021/10/03 08:04:03;;;;;;;10.93;9.50;;;10.60;99.90;;;;;;5126183;28;20204;-34
2021/10/03 08:06:34;;;;;;;15.10;9.00;;;10.60;99.90;;;;;;5129785;27;20449;-33
2021/10/03 08:09:05;;;;;;;12.40;9.60;;;10.60;99.90;;;;;;5144576;27;20527;-34
2021/10/03 08:11:39;;;;;;;15.20;10.57;;;10.60;99.90;;;;;;5146573;27;20429;-34
2021/10/03 08:14:12;;;;;;;15.65;10.85;;;10.60;99.90;;;;;;5146439;27;20896;-34
2021/10/03 08:16:43;;;;;;;15.70;11.60;;;10.50;99.90;;;;;;5145836;27;20204;-34
2021/10/03 08:19:14;;;;;;;16.90;10.93;;;10.50;99.90;;;;;;5146491;27;20511;-34
2021/10/03 08:21:45;;;;;;;19.93;13.23;;;10.50;99.90;;;;;;5145665;27;20474;-34
2021/10/03 08:24:15;;;;;;;14.60;10.77;;;10.50;99.90;;;;;;5145876;27;20473;-34
2021/10/03 08:26:50;;;;;;;17.80;11.37;;;10.40;99.90;;;;;;5146207;27;20496;-34
2021/10/03 08:29:23;;;;;;;16.47;11.13;;;10.40;99.90;;;;;;5147044;27;20837;-34
2021/10/03 08:31:54;;;;;;;19.35;11.38;;;10.40;99.90;;;;;;5145549;27;20498;-34
2021/10/03 08:34:25;;;;;;;18.50;8.63;;;10.40;99.90;;;;;;5135017;27;20309;-34
2021/10/03 08:36:56;;;;;;;15.27;11.73;;;10.30;99.90;;;;;;5133871;27;20225;-35
2021/10/03 08:39:27;;;;;;;17.83;11.43;;;10.30;99.90;;;;;;5145645;27;20560;-34
2021/10/03 08:41:58;;;;;;;17.53;12.60;;;10.30;99.90;;;;;;5146185;27;20429;-34
2021/10/03 08:44:32;;;;;;;20.30;14.67;;;10.30;99.90;;;;;;5146047;27;20425;-34
2021/10/03 08:47:03;;;;;;;25.88;17.48;;;10.20;99.90;;;;;;5144838;27;20487;-34
2021/10/03 08:49:35;;;;;;;23.70;16.20;;;10.10;99.90;;;;;;5145738;27;20650;-34
2021/10/03 08:52:06;;;;;;;24.00;16.57;;;10.10;99.90;;;;;;5145539;27;20484;-34
2021/10/03 08:54:38;;;;;;;23.13;15.75;;;10.10;99.90;;;;;;5146051;27;20525;-34
2021/10/03 08:57:12;;;;;;;23.23;14.07;;;10.10;99.90;;;;;;5143569;27;20297;-34
2021/10/03 09:00:10;;;;;;;19.52;12.23;;;10.10;99.90;;;;;;5145757;27;20329;-34
2021/10/03 09:03:04;;;;;;;14.52;10.18;;;10.10;99.90;;;;;;5137286;27;20352;-34
2021/10/03 09:05:38;;;;;;;13.50;9.80;;;10.00;99.90;;;;;;5146090;27;20207;-34
2021/10/03 09:08:11;;;;;;;12.48;8.77;;;10.10;99.90;;;;;;5143924;27;20195;-34
2021/10/03 09:10:55;;;;;;;15.25;8.63;;;10.00;99.90;;;;;;5141729;27;20203;-34
2021/10/03 09:13:45;;;;;;;12.57;7.57;;;10.00;99.90;;;;;;5145733;27;20254;-35
2021/10/03 09:16:25;;;;;;;12.88;7.55;;;10.00;99.90;;;;;;5144678;27;20290;-34
2021/10/03 09:18:58;;;;;;;8.05;6.32;;;10.00;99.90;;;;;;5145199;27;20274;-34
2021/10/03 09:21:42;;;;;;;7.63;6.45;;;9.90;99.90;;;;;;5145253;27;20233;-34
2021/10/03 09:24:15;;;;;;;12.18;6.07;;;9.80;99.90;;;;;;5145468;27;20191;-34
2021/10/03 09:26:56;;;;;;;8.35;6.00;;;9.80;99.90;;;;;;5144702;27;20233;-34
2021/10/03 09:29:30;;;;;;;6.90;5.80;;;9.80;99.90;;;;;;5144705;27;20615;-34
2021/10/03 09:32:14;;;;;;;9.43;5.70;;;9.70;99.90;;;;;;5144255;27;20269;-35
2021/10/03 09:34:47;;;;;;;9.95;6.28;;;9.70;99.90;;;;;;5145027;27;20210;-35
2021/10/03 09:37:24;;;;;;;5.95;5.35;;;9.60;99.90;;;;;;5144043;27;20568;-35
2021/10/03 09:40:04;;;;;;;10.43;5.97;;;9.60;99.90;;;;;;5144736;27;20222;-34
2021/10/03 09:42:35;;;;;;;9.52;7.57;;;9.60;99.90;;;;;;5145492;27;20191;-35
2021/10/03 09:45:08;;;;;;;13.27;8.02;;;9.60;99.90;;;;;;5143708;27;20238;-36
2021/10/03 09:47:42;;;;;;;15.20;9.57;;;9.50;99.90;;;;;;5144200;27;20207;-35
2021/10/03 09:50:15;;;;;;;24.48;14.02;;;9.60;99.90;;;;;;5144896;27;20237;-35
2021/10/03 09:52:46;;;;;;;21.95;16.52;;;9.50;99.90;;;;;;5144471;27;20947;-35
2021/10/03 09:55:18;;;;;;;23.33;16.00;;;9.50;99.90;;;;;;5143775;27;20203;-35
2021/10/03 09:57:49;;;;;;;24.48;15.75;;;9.40;99.90;;;;;;5144536;27;20231;-35
2021/10/03 10:00:21;;;;;;;21.08;13.20;;;9.40;99.90;;;;;;5143630;27;20231;-35
2021/10/03 10:02:54;;;;;;;18.52;12.30;;;9.30;99.90;;;;;;5144027;27;20260;-35
2021/10/03 10:05:26;;;;;;;22.38;12.13;;;9.30;99.90;;;;;;5144692;27;20200;-36
2021/10/03 10:07:58;;;;;;;17.48;12.52;;;9.30;99.90;;;;;;5142985;27;20226;-35
2021/10/03 10:10:34;;;;;;;16.85;11.80;;;9.30;99.90;;;;;;5144291;27;20187;-35
2021/10/03 10:13:13;;;;;;;17.98;12.85;;;9.30;99.90;;;;;;5144600;27;20206;-36
2021/10/03 10:15:44;;;;;;;14.65;10.20;;;9.30;99.90;;;;;;5142711;27;20198;-35
2021/10/03 10:18:27;;;;;;;9.88;8.80;;;9.20;99.90;;;;;;5143292;27;20256;-35
2021/10/03 10:20:58;;;;;;;14.13;8.45;;;9.20;99.90;;;;;;5143804;27;20242;-35
2021/10/03 10:23:31;;;;;;;9.48;7.10;;;9.20;99.90;;;;;;5144012;27;20214;-35
2021/10/03 10:26:02;;;;;;;10.80;7.10;;;9.20;99.90;;;;;;5144140;27;20210;-35
2021/10/03 10:28:39;;;;;;;8.13;6.55;;;9.20;99.90;;;;;;5132077;27;20251;-34
2021/10/03 10:31:16;;;;;;;9.30;6.60;;;9.10;99.90;;;;;;5143937;27;20220;-34
2021/10/03 10:34:11;;;;;;;7.80;5.60;;;9.10;99.90;;;;;;5142283;27;20267;-33
2021/10/03 10:36:56;;;;;;;6.55;5.90;;;9.10;99.90;;;;;;5144083;28;20207;-35
2021/10/03 10:39:32;;;;;;;10.38;5.95;;;9.00;99.90;;;;;;5142743;28;20195;-36
2021/10/03 10:42:03;;;;;;;8.55;6.38;;;9.00;99.90;;;;;;5144294;27;20199;-35
2021/10/03 10:44:41;;;;;;;9.02;6.45;;;8.90;99.90;;;;;;5144566;27;20523;-34
2021/10/03 10:47:17;;;;;;;6.97;5.97;;;9.00;99.90;;;;;;5142964;27;20203;-35
2021/10/03 10:49:52;;;;;;;6.95;6.03;;;9.00;99.90;;;;;;5143628;28;20195;-35
2021/10/03 10:52:37;;;;;;;8.38;5.97;;;8.90;99.90;;;;;;5144180;27;20539;-35
2021/10/03 10:55:29;;;;;;;10.95;6.53;;;8.90;99.90;;;;;;5144012;27;20202;-35
2021/10/03 10:58:14;;;;;;;8.88;5.35;;;8.90;99.90;;;;;;5139280;27;20207;-35
2021/10/03 11:01:02;;;;;;;6.22;4.65;;;8.90;99.90;;;;;;5143485;27;20235;-36
2021/10/03 11:04:24;;;;;;;8.63;5.15;;;8.90;99.90;;;;;;5142896;27;20205;-35
2021/10/03 11:07:00;;;;;;;9.57;5.38;;;8.80;99.90;;;;;;5145068;27;20226;-35
2021/10/03 11:09:55;;;;;;;7.78;4.88;;;8.80;99.90;;;;;;5145486;27;20202;-35
2021/10/03 11:12:36;;;;;;;6.55;4.70;;;8.70;99.90;;;;;;5147947;27;20231;-35
2021/10/03 11:15:24;;;;;;;7.38;4.95;;;8.70;99.90;;;;;;5147593;27;20233;-35
2021/10/03 11:17:55;;;;;;;6.85;5.00;;;8.70;99.90;;;;;;5147459;27;20203;-35
2021/10/03 11:20:26;;;;;;;7.32;5.15;;;8.70;99.90;;;;;;5146574;27;20254;-35
2021/10/03 11:22:58;;;;;;;8.77;4.80;;;8.60;99.90;;;;;;5147884;27;20279;-35
2021/10/03 11:25:31;;;;;;;9.15;5.82;;;8.60;99.90;;;;;;5147144;27;20278;-35
2021/10/03 11:28:02;;;;;;;11.25;6.80;;;8.60;99.90;;;;;;5147084;27;20196;-35
2021/10/03 11:30:36;;;;;;;8.38;6.28;;;8.60;99.90;;;;;;5147739;27;20207;-35
2021/10/03 11:33:12;;;;;;;16.33;10.85;;;8.60;99.90;;;;;;5146239;27;20206;-35
2021/10/03 11:35:43;;;;;;;22.67;11.75;;;8.60;99.90;;;;;;5145844;27;20210;-35
2021/10/03 11:38:16;;;;;;;23.60;12.70;;;8.60;99.90;;;;;;5147330;27;20188;-35
2021/10/03 11:40:47;;;;;;;20.05;12.77;;;8.60;99.90;;;;;;5147887;27;20230;-35
2021/10/03 11:43:20;;;;;;;22.60;12.55;;;8.60;99.90;;;;;;5147318;27;20210;-35
2021/10/03 11:45:51;;;;;;;25.92;12.93;;;8.50;99.90;;;;;;5147129;27;20210;-35
2021/10/03 11:48:27;;;;;;;24.70;13.93;;;8.50;99.90;;;;;;5146467;27;20674;-35
2021/10/03 11:50:58;;;;;;;26.75;13.20;;;8.50;99.90;;;;;;5146872;27;20199;-35
2021/10/03 11:53:34;;;;;;;23.85;14.07;;;8.50;99.90;;;;;;5147475;27;20234;-35
2021/10/03 11:56:09;;;;;;;18.88;11.80;;;8.50;99.90;;;;;;5147840;27;20198;-36
2021/10/03 11:58:41;;;;;;;16.88;10.80;;;8.50;99.90;;;;;;5146961;27;20651;-34
2021/10/03 12:01:12;;;;;;;19.08;9.65;;;8.50;99.90;;;;;;5146827;27;20243;-35
2021/10/03 12:03:52;;;;;;;14.50;8.85;;;8.40;99.90;;;;;;5144804;27;20227;-35
2021/10/03 12:06:26;;;;;;;17.13;10.00;;;8.50;99.90;;;;;;5146737;27;20334;-35
2021/10/03 12:08:59;;;;;;;19.38;9.10;;;8.50;99.90;;;;;;5146841;27;20233;-34
2021/10/03 12:11:30;;;;;;;12.20;8.25;;;8.40;99.90;;;;;;5146561;27;20206;-35
2021/10/03 12:14:02;;;;;;;13.70;9.45;;;8.40;99.90;;;;;;5146192;27;20195;-34
2021/10/03 12:16:33;;;;;;;14.13;7.90;;;8.40;99.90;;;;;;5146124;27;20944;-35
2021/10/03 12:19:05;;;;;;;15.10;8.15;;;8.30;99.90;;;;;;5126009;27;20525;-34
2021/10/03 12:21:37;;;;;;;17.13;8.90;;;8.30;99.90;;;;;;5146399;27;20234;-34
2021/10/03 12:24:11;;;;;;;13.40;8.35;;;8.30;99.90;;;;;;5146100;27;20211;-34
2021/10/03 12:26:45;;;;;;;12.25;7.95;;;8.30;99.90;;;;;;5146664;27;20195;-35
2021/10/03 12:29:21;;;;;;;10.73;7.30;;;8.30;99.90;;;;;;5145939;27;20199;-34
2021/10/03 12:31:55;;;;;;;9.23;7.00;;;8.30;99.90;;;;;;5142641;27;20222;-34
2021/10/03 12:34:38;;;;;;;11.40;6.82;;;8.20;99.90;;;;;;5141990;27;20200;-35
2021/10/03 12:37:32;;;;;;;7.05;5.68;;;8.20;99.90;;;;;;5146376;27;20743;-34
2021/10/03 12:40:09;;;;;;;11.27;6.07;;;8.20;99.90;;;;;;5145967;27;20214;-35
2021/10/03 12:42:41;;;;;;;11.60;6.47;;;8.20;99.90;;;;;;5145193;27;20257;-35
2021/10/03 12:45:12;;;;;;;9.10;5.97;;;8.20;99.90;;;;;;5146821;27;20267;-35
2021/10/03 12:47:43;;;;;;;9.80;6.78;;;8.20;99.90;;;;;;5144383;27;20187;-34
2021/10/03 12:50:14;;;;;;;6.93;5.53;;;8.20;99.90;;;;;;5145051;27;20200;-35
2021/10/03 12:52:45;;;;;;;8.13;6.20;;;8.30;99.90;;;;;;5146181;27;20282;-35
2021/10/03 12:55:18;;;;;;;8.68;5.88;;;8.20;99.90;;;;;;5145978;27;20246;-35
2021/10/03 12:57:49;;;;;;;9.70;5.80;;;8.20;99.90;;;;;;5144546;27;20299;-35
2021/10/03 13:00:20;;;;;;;8.10;6.70;;;8.20;99.90;;;;;;5145487;27;20352;-34
2021/10/03 13:02:53;;;;;;;9.32;6.40;;;8.10;99.90;;;;;;5144584;27;20268;-34
2021/10/03 13:05:24;;;;;;;13.93;6.78;;;8.10;99.90;;;;;;5145538;27;20309;-34
2021/10/03 13:07:56;;;;;;;7.43;5.50;;;8.10;99.90;;;;;;5145426;27;20520;-35
2021/10/03 13:10:31;;;;;;;8.77;5.30;;;8.00;99.90;;;;;;5144599;27;20222;-35
2021/10/03 13:13:02;;;;;;;9.13;6.63;;;8.10;99.90;;;;;;5145446;27;20207;-35
2021/10/03 13:15:33;;;;;;;7.05;5.82;;;8.10;99.90;;;;;;5145515;27;20283;-35